sensor_id;sensor_type;location;lat;lon;timestamp;P1;durP1;ratioP1;P2;durP2;ratioP2
38318;SDS011;24121;53.536;10.224;2024-02-15T00:02:12;49.95;;;20.73;;
38318;SDS011;24121;53.536;10.224;2024-02-15T00:04:37;35.67;;;19.65;;
38318;SDS011;24121;53.536;10.224;2024-02-15T00:07:03;64.35;;;22.63;;
38318;SDS011;24121;53.536;10.224;2024-02-15T00:09:29;106.63;;;26.88;;
38318;SDS011;24121;53.536;10.224;2024-02-15T00:11:54;228.90;;;38.30;;
38318;SDS011;24121;53.536;10.224;2024-02-15T07:01:32;175.17;;;34.77;;
38318;SDS011;24121;53.536;10.224;2024-02-15T07:03:59;60.63;;;25.48;;
38318;SDS011;24121;53.536;10.224;2024-02-15T07:06:24;234.13;;;39.47;;
38318;SDS011;24121;53.536;10.224;2024-02-15T07:08:50;94.18;;;29.13;;
38318;SDS011;24121;53.536;10.224;2024-02-15T07:11:19;178.13;;;36.33;;
38318;SDS011;24121;53.536;10.224;2024-02-15T07:13:44;117.30;;;29.13;;
38318;SDS011;24121;53.536;10.224;2024-02-15T07:16:10;212.25;;;38.08;;
38318;SDS011;24121;53.536;10.224;2024-02-15T07:18:36;132.73;;;32.35;;
38318;SDS011;24121;53.536;10.224;2024-02-15T07:21:02;104.63;;;29.23;;
38318;SDS011;24121;53.536;10.224;2024-02-15T07:23:29;69.03;;;25.63;;
38318;SDS011;24121;53.536;10.224;2024-02-15T07:25:54;64.43;;;26.60;;
38318;SDS011;24121;53.536;10.224;2024-02-15T07:28:20;297.00;;;47.28;;
38318;SDS011;24121;53.536;10.224;2024-02-15T07:30:46;135.52;;;32.58;;
38318;SDS011;24121;53.536;10.224;2024-02-15T07:33:13;162.85;;;35.25;;
38318;SDS011;24121;53.536;10.224;2024-02-15T07:35:41;75.88;;;27.38;;
38318;SDS011;24121;53.536;10.224;2024-02-15T07:38:07;89.25;;;28.88;;
38318;SDS011;24121;53.536;10.224;2024-02-15T07:40:32;62.15;;;24.42;;
38318;SDS011;24121;53.536;10.224;2024-02-15T07:42:58;99.65;;;29.50;;
38318;SDS011;24121;53.536;10.224;2024-02-15T07:45:23;109.05;;;31.63;;
38318;SDS011;24121;53.536;10.224;2024-02-15T07:47:49;221.27;;;44.05;;
38318;SDS011;24121;53.536;10.224;2024-02-15T07:50:15;59.47;;;25.00;;
38318;SDS011;24121;53.536;10.224;2024-02-15T07:52:45;105.18;;;31.55;;
38318;SDS011;24121;53.536;10.224;2024-02-15T07:55:10;103.88;;;30.00;;
38318;SDS011;24121;53.536;10.224;2024-02-15T07:57:35;91.75;;;28.75;;
38318;SDS011;24121;53.536;10.224;2024-02-15T08:00:01;100.47;;;30.88;;
38318;SDS011;24121;53.536;10.224;2024-02-15T08:02:26;99.88;;;31.13;;
38318;SDS011;24121;53.536;10.224;2024-02-15T08:04:53;65.05;;;25.77;;
38318;SDS011;24121;53.536;10.224;2024-02-15T08:07:19;100.43;;;29.02;;
38318;SDS011;24121;53.536;10.224;2024-02-15T08:09:45;73.60;;;25.73;;
38318;SDS011;24121;53.536;10.224;2024-02-15T08:12:11;108.88;;;29.95;;
38318;SDS011;24121;53.536;10.224;2024-02-15T08:14:36;102.80;;;29.40;;
38318;SDS011;24121;53.536;10.224;2024-02-15T08:17:02;189.50;;;36.50;;
38318;SDS011;24121;53.536;10.224;2024-02-15T08:19:28;93.90;;;28.58;;
38318;SDS011;24121;53.536;10.224;2024-02-15T08:21:53;128.80;;;28.38;;
38318;SDS011;24121;53.536;10.224;2024-02-15T08:24:19;82.40;;;26.25;;
38318;SDS011;24121;53.536;10.224;2024-02-15T08:26:44;107.72;;;29.38;;
38318;SDS011;24121;53.536;10.224;2024-02-15T08:29:10;69.57;;;24.98;;
38318;SDS011;24121;53.536;10.224;2024-02-15T08:31:36;104.47;;;28.33;;
38318;SDS011;24121;53.536;10.224;2024-02-15T08:34:02;49.60;;;22.15;;
38318;SDS011;24121;53.536;10.224;2024-02-15T08:36:30;73.28;;;24.83;;
38318;SDS011;24121;53.536;10.224;2024-02-15T08:38:55;86.78;;;24.70;;
38318;SDS011;24121;53.536;10.224;2024-02-15T08:41:21;57.95;;;21.83;;
38318;SDS011;24121;53.536;10.224;2024-02-15T08:43:48;86.53;;;25.92;;
38318;SDS011;24121;53.536;10.224;2024-02-15T08:46:14;78.80;;;24.10;;
38318;SDS011;24121;53.536;10.224;2024-02-15T08:48:39;98.45;;;25.77;;
38318;SDS011;24121;53.536;10.224;2024-02-15T08:51:05;79.93;;;21.40;;
38318;SDS011;24121;53.536;10.224;2024-02-15T08:53:31;49.80;;;20.02;;
38318;SDS011;24121;53.536;10.224;2024-02-15T08:55:57;39.92;;;18.50;;
38318;SDS011;24121;53.536;10.224;2024-02-15T08:58:22;32.38;;;17.42;;
38318;SDS011;24121;53.536;10.224;2024-02-15T09:00:48;133.85;;;26.45;;
38318;SDS011;24121;53.536;10.224;2024-02-15T09:03:13;38.35;;;17.25;;
38318;SDS011;24121;53.536;10.224;2024-02-15T09:05:39;45.38;;;19.05;;
38318;SDS011;24121;53.536;10.224;2024-02-15T09:08:05;109.45;;;24.25;;
38318;SDS011;24121;53.536;10.224;2024-02-15T09:10:31;32.97;;;16.42;;
38318;SDS011;24121;53.536;10.224;2024-02-15T09:12:56;40.72;;;17.88;;
38318;SDS011;24121;53.536;10.224;2024-02-15T09:15:21;49.17;;;17.38;;
38318;SDS011;24121;53.536;10.224;2024-02-15T09:17:47;33.17;;;15.75;;
38318;SDS011;24121;53.536;10.224;2024-02-15T09:20:13;69.63;;;19.35;;
38318;SDS011;24121;53.536;10.224;2024-02-15T09:22:49;24.13;;;13.48;;
38318;SDS011;24121;53.536;10.224;2024-02-15T09:25:16;50.72;;;16.52;;
38318;SDS011;24121;53.536;10.224;2024-02-15T09:27:41;28.25;;;14.13;;
38318;SDS011;24121;53.536;10.224;2024-02-15T09:30:07;26.85;;;13.32;;
38318;SDS011;24121;53.536;10.224;2024-02-15T09:32:34;48.45;;;17.13;;
38318;SDS011;24121;53.536;10.224;2024-02-15T09:35:00;24.83;;;13.90;;
38318;SDS011;24121;53.536;10.224;2024-02-15T09:37:25;39.22;;;14.48;;
38318;SDS011;24121;53.536;10.224;2024-02-15T09:39:53;22.23;;;12.68;;
38318;SDS011;24121;53.536;10.224;2024-02-15T09:42:19;72.05;;;18.17;;
38318;SDS011;24121;53.536;10.224;2024-02-15T09:44:45;38.35;;;14.75;;
38318;SDS011;24121;53.536;10.224;2024-02-15T09:47:11;22.33;;;12.95;;
38318;SDS011;24121;53.536;10.224;2024-02-15T09:49:38;37.80;;;14.25;;
38318;SDS011;24121;53.536;10.224;2024-02-15T09:52:06;42.75;;;14.68;;
38318;SDS011;24121;53.536;10.224;2024-02-15T09:54:32;32.15;;;14.18;;
38318;SDS011;24121;53.536;10.224;2024-02-15T09:56:58;22.08;;;13.02;;
38318;SDS011;24121;53.536;10.224;2024-02-15T09:59:26;61.67;;;18.42;;
38318;SDS011;24121;53.536;10.224;2024-02-15T10:01:51;46.92;;;15.73;;
38318;SDS011;24121;53.536;10.224;2024-02-15T10:04:17;77.95;;;19.77;;
38318;SDS011;24121;53.536;10.224;2024-02-15T10:06:42;25.58;;;14.02;;
38318;SDS011;24121;53.536;10.224;2024-02-15T10:09:24;36.33;;;16.88;;
38318;SDS011;24121;53.536;10.224;2024-02-15T10:11:56;31.25;;;15.65;;
38318;SDS011;24121;53.536;10.224;2024-02-15T10:14:23;73.38;;;22.15;;
38318;SDS011;24121;53.536;10.224;2024-02-15T10:16:55;35.80;;;16.83;;
38318;SDS011;24121;53.536;10.224;2024-02-15T10:19:21;35.38;;;17.80;;
38318;SDS011;24121;53.536;10.224;2024-02-15T10:21:51;30.83;;;16.27;;
38318;SDS011;24121;53.536;10.224;2024-02-15T10:24:20;30.00;;;17.05;;
38318;SDS011;24121;53.536;10.224;2024-02-15T10:26:45;55.92;;;20.70;;
38318;SDS011;24121;53.536;10.224;2024-02-15T10:29:13;34.80;;;17.88;;
38318;SDS011;24121;53.536;10.224;2024-02-15T10:31:40;35.50;;;18.02;;
38318;SDS011;24121;53.536;10.224;2024-02-15T10:34:18;31.88;;;17.63;;
38318;SDS011;24121;53.536;10.224;2024-02-15T10:36:47;62.78;;;23.48;;
38318;SDS011;24121;53.536;10.224;2024-02-15T10:39:13;38.65;;;20.17;;
38318;SDS011;24121;53.536;10.224;2024-02-15T10:41:51;65.68;;;23.80;;
38318;SDS011;24121;53.536;10.224;2024-02-15T10:46:44;33.50;;;19.85;;
38318;SDS011;24121;53.536;10.224;2024-02-15T10:49:17;57.60;;;24.40;;
38318;SDS011;24121;53.536;10.224;2024-02-15T10:51:48;55.60;;;23.30;;
38318;SDS011;24121;53.536;10.224;2024-02-15T10:54:18;57.10;;;24.50;;
38318;SDS011;24121;53.536;10.224;2024-02-15T10:56:48;64.35;;;26.13;;
38318;SDS011;24121;53.536;10.224;2024-02-15T10:59:18;43.83;;;23.63;;
38318;SDS011;24121;53.536;10.224;2024-02-15T11:01:49;48.15;;;23.58;;
38318;SDS011;24121;53.536;10.224;2024-02-15T11:04:20;38.47;;;23.30;;
38318;SDS011;24121;53.536;10.224;2024-02-15T11:06:50;53.35;;;25.98;;
38318;SDS011;24121;53.536;10.224;2024-02-15T11:09:15;45.30;;;23.38;;
38318;SDS011;24121;53.536;10.224;2024-02-15T11:11:41;62.25;;;28.42;;
38318;SDS011;24121;53.536;10.224;2024-02-15T11:14:22;42.42;;;24.63;;
38318;SDS011;24121;53.536;10.224;2024-02-15T11:16:49;56.63;;;26.73;;
38318;SDS011;24121;53.536;10.224;2024-02-15T11:22:08;80.60;;;29.15;;
38318;SDS011;24121;53.536;10.224;2024-02-15T11:24:35;73.50;;;26.92;;
38318;SDS011;24121;53.536;10.224;2024-02-15T11:27:02;49.58;;;26.98;;
38318;SDS011;24121;53.536;10.224;2024-02-15T11:29:51;55.80;;;27.15;;
38318;SDS011;24121;53.536;10.224;2024-02-15T11:35:03;78.18;;;31.00;;
38318;SDS011;24121;53.536;10.224;2024-02-15T11:40:13;137.30;;;37.47;;
38318;SDS011;24121;53.536;10.224;2024-02-15T11:42:39;68.47;;;30.00;;
38318;SDS011;24121;53.536;10.224;2024-02-15T11:45:05;153.02;;;40.05;;
38318;SDS011;24121;53.536;10.224;2024-02-15T11:47:32;97.07;;;34.30;;
38318;SDS011;24121;53.536;10.224;2024-02-15T11:50:01;151.53;;;38.63;;
38318;SDS011;24121;53.536;10.224;2024-02-15T11:52:27;116.57;;;36.88;;
38318;SDS011;24121;53.536;10.224;2024-02-15T11:54:53;107.78;;;35.60;;
38318;SDS011;24121;53.536;10.224;2024-02-15T11:57:18;65.63;;;30.45;;
38318;SDS011;24121;53.536;10.224;2024-02-15T12:00:01;100.82;;;34.85;;
38318;SDS011;24121;53.536;10.224;2024-02-15T12:03:03;72.80;;;32.22;;
38318;SDS011;24121;53.536;10.224;2024-02-15T12:05:48;84.30;;;34.55;;
38318;SDS011;24121;53.536;10.224;2024-02-15T12:08:33;89.13;;;34.42;;
38318;SDS011;24121;53.536;10.224;2024-02-15T12:11:17;79.47;;;33.30;;
38318;SDS011;24121;53.536;10.224;2024-02-15T12:14:01;183.60;;;44.30;;
38318;SDS011;24121;53.536;10.224;2024-02-15T12:16:45;56.72;;;30.02;;
38318;SDS011;24121;53.536;10.224;2024-02-15T12:19:29;165.43;;;45.20;;
38318;SDS011;24121;53.536;10.224;2024-02-15T12:21:54;99.70;;;36.10;;
38318;SDS011;24121;53.536;10.224;2024-02-15T12:24:22;102.35;;;35.92;;
38318;SDS011;24121;53.536;10.224;2024-02-15T12:26:51;99.32;;;34.55;;
38318;SDS011;24121;53.536;10.224;2024-02-15T12:29:17;232.25;;;47.80;;
38318;SDS011;24121;53.536;10.224;2024-02-15T12:31:43;215.73;;;45.22;;
38318;SDS011;24121;53.536;10.224;2024-02-15T12:34:09;148.63;;;40.50;;
38318;SDS011;24121;53.536;10.224;2024-02-15T12:36:35;240.68;;;50.55;;
38318;SDS011;24121;53.536;10.224;2024-02-15T12:39:04;214.13;;;44.80;;
38318;SDS011;24121;53.536;10.224;2024-02-15T12:41:39;183.13;;;46.20;;
38318;SDS011;24121;53.536;10.224;2024-02-15T12:44:15;50.38;;;28.35;;
38318;SDS011;24121;53.536;10.224;2024-02-15T12:46:41;110.55;;;35.50;;
38318;SDS011;24121;53.536;10.224;2024-02-15T12:51:51;109.90;;;34.78;;
38318;SDS011;24121;53.536;10.224;2024-02-15T12:54:22;126.43;;;38.13;;
38318;SDS011;24121;53.536;10.224;2024-02-15T12:56:48;180.25;;;41.00;;
38318;SDS011;24121;53.536;10.224;2024-02-15T12:59:14;100.43;;;33.15;;
38318;SDS011;24121;53.536;10.224;2024-02-15T13:01:40;77.53;;;28.73;;
38318;SDS011;24121;53.536;10.224;2024-02-15T13:04:05;41.72;;;24.00;;
38318;SDS011;24121;53.536;10.224;2024-02-15T13:06:31;57.15;;;27.13;;
38318;SDS011;24121;53.536;10.224;2024-02-15T13:09:00;72.10;;;28.20;;
38318;SDS011;24121;53.536;10.224;2024-02-15T13:11:27;48.28;;;25.00;;
38318;SDS011;24121;53.536;10.224;2024-02-15T13:13:52;149.30;;;38.83;;
38318;SDS011;24121;53.536;10.224;2024-02-15T13:16:19;36.00;;;20.98;;
38318;SDS011;24121;53.536;10.224;2024-02-15T13:18:45;173.55;;;37.65;;
38318;SDS011;24121;53.536;10.224;2024-02-15T13:21:12;103.95;;;32.17;;
38318;SDS011;24121;53.536;10.224;2024-02-15T13:23:37;110.93;;;31.77;;
38318;SDS011;24121;53.536;10.224;2024-02-15T13:26:02;30.42;;;18.98;;
38318;SDS011;24121;53.536;10.224;2024-02-15T13:28:29;60.38;;;25.08;;
38318;SDS011;24121;53.536;10.224;2024-02-15T13:30:55;49.22;;;22.13;;
38318;SDS011;24121;53.536;10.224;2024-02-15T13:33:21;128.68;;;33.42;;
38318;SDS011;24121;53.536;10.224;2024-02-15T13:35:47;81.43;;;27.35;;
38318;SDS011;24121;53.536;10.224;2024-02-15T13:38:14;61.75;;;21.48;;
38318;SDS011;24121;53.536;10.224;2024-02-15T13:40:47;27.25;;;16.08;;
38318;SDS011;24121;53.536;10.224;2024-02-15T13:43:14;27.92;;;15.48;;
38318;SDS011;24121;53.536;10.224;2024-02-15T13:45:42;57.83;;;21.25;;
38318;SDS011;24121;53.536;10.224;2024-02-15T13:48:09;47.80;;;19.30;;
38318;SDS011;24121;53.536;10.224;2024-02-15T13:50:35;29.30;;;14.30;;
38318;SDS011;24121;53.536;10.224;2024-02-15T13:53:01;15.05;;;10.60;;
38318;SDS011;24121;53.536;10.224;2024-02-15T13:55:27;32.03;;;14.80;;
38318;SDS011;24121;53.536;10.224;2024-02-15T13:57:53;18.63;;;12.35;;
38318;SDS011;24121;53.536;10.224;2024-02-15T14:00:21;38.15;;;16.02;;
38318;SDS011;24121;53.536;10.224;2024-02-15T14:02:53;15.77;;;10.63;;
38318;SDS011;24121;53.536;10.224;2024-02-15T14:05:19;24.85;;;12.68;;
38318;SDS011;24121;53.536;10.224;2024-02-15T14:07:49;15.75;;;10.60;;
38318;SDS011;24121;53.536;10.224;2024-02-15T14:10:15;19.73;;;11.50;;
38318;SDS011;24121;53.536;10.224;2024-02-15T14:12:43;16.95;;;11.68;;
38318;SDS011;24121;53.536;10.224;2024-02-15T14:15:08;25.10;;;12.60;;
38318;SDS011;24121;53.536;10.224;2024-02-15T14:17:34;16.67;;;12.60;;
38318;SDS011;24121;53.536;10.224;2024-02-15T14:20:00;18.90;;;12.65;;
38318;SDS011;24121;53.536;10.224;2024-02-15T14:22:26;20.55;;;12.57;;
38318;SDS011;24121;53.536;10.224;2024-02-15T14:24:54;14.73;;;11.27;;
38318;SDS011;24121;53.536;10.224;2024-02-15T14:27:20;28.10;;;13.52;;
38318;SDS011;24121;53.536;10.224;2024-02-15T14:29:46;18.80;;;12.02;;
38318;SDS011;24121;53.536;10.224;2024-02-15T14:32:31;21.85;;;13.45;;
38318;SDS011;24121;53.536;10.224;2024-02-15T14:35:15;14.95;;;10.30;;
38318;SDS011;24121;53.536;10.224;2024-02-15T14:37:41;44.33;;;15.95;;
38318;SDS011;24121;53.536;10.224;2024-02-15T14:40:07;22.63;;;12.77;;
38318;SDS011;24121;53.536;10.224;2024-02-15T14:42:33;28.40;;;14.73;;
38318;SDS011;24121;53.536;10.224;2024-02-15T14:45:01;34.20;;;16.98;;
38318;SDS011;24121;53.536;10.224;2024-02-15T14:47:26;13.15;;;10.77;;
38318;SDS011;24121;53.536;10.224;2024-02-15T14:49:51;34.05;;;15.10;;
38318;SDS011;24121;53.536;10.224;2024-02-15T14:52:17;25.38;;;13.48;;
38318;SDS011;24121;53.536;10.224;2024-02-15T14:54:43;13.10;;;10.77;;
38318;SDS011;24121;53.536;10.224;2024-02-15T14:57:08;23.20;;;12.27;;
38318;SDS011;24121;53.536;10.224;2024-02-15T14:59:34;43.03;;;17.77;;
38318;SDS011;24121;53.536;10.224;2024-02-15T15:01:59;15.40;;;11.25;;
38318;SDS011;24121;53.536;10.224;2024-02-15T15:04:33;15.40;;;12.15;;
38318;SDS011;24121;53.536;10.224;2024-02-15T15:07:12;17.20;;;12.65;;
38318;SDS011;24121;53.536;10.224;2024-02-15T15:09:57;16.90;;;12.32;;
38318;SDS011;24121;53.536;10.224;2024-02-15T15:12:40;23.58;;;14.52;;
38318;SDS011;24121;53.536;10.224;2024-02-15T15:15:10;20.92;;;13.43;;
38318;SDS011;24121;53.536;10.224;2024-02-15T15:17:37;21.60;;;13.65;;
38318;SDS011;24121;53.536;10.224;2024-02-15T15:20:03;20.98;;;14.82;;
38318;SDS011;24121;53.536;10.224;2024-02-15T15:22:33;15.70;;;12.43;;
38318;SDS011;24121;53.536;10.224;2024-02-15T15:24:59;18.73;;;13.82;;
38318;SDS011;24121;53.536;10.224;2024-02-15T15:27:26;20.48;;;13.93;;
38318;SDS011;24121;53.536;10.224;2024-02-15T15:29:52;26.85;;;16.15;;
38318;SDS011;24121;53.536;10.224;2024-02-15T15:32:17;23.92;;;14.88;;
38318;SDS011;24121;53.536;10.224;2024-02-15T15:34:42;32.70;;;17.77;;
38318;SDS011;24121;53.536;10.224;2024-02-15T15:37:08;43.10;;;18.50;;
38318;SDS011;24121;53.536;10.224;2024-02-15T15:39:33;28.58;;;15.90;;
38318;SDS011;24121;53.536;10.224;2024-02-15T15:42:01;16.02;;;12.77;;
38318;SDS011;24121;53.536;10.224;2024-02-15T15:44:27;20.45;;;14.98;;
38318;SDS011;24121;53.536;10.224;2024-02-15T15:46:52;16.23;;;13.07;;
38318;SDS011;24121;53.536;10.224;2024-02-15T15:49:18;20.77;;;14.05;;
38318;SDS011;24121;53.536;10.224;2024-02-15T15:51:43;20.13;;;14.25;;
38318;SDS011;24121;53.536;10.224;2024-02-15T15:54:08;16.88;;;13.18;;
38318;SDS011;24121;53.536;10.224;2024-02-15T15:56:34;27.20;;;16.15;;
38318;SDS011;24121;53.536;10.224;2024-02-15T15:58:59;27.30;;;15.75;;
38318;SDS011;24121;53.536;10.224;2024-02-15T16:01:25;20.45;;;14.80;;
38318;SDS011;24121;53.536;10.224;2024-02-15T16:03:50;39.15;;;18.50;;
38318;SDS011;24121;53.536;10.224;2024-02-15T16:06:16;30.25;;;16.17;;
38318;SDS011;24121;53.536;10.224;2024-02-15T16:08:42;27.05;;;16.70;;
38318;SDS011;24121;53.536;10.224;2024-02-15T16:11:07;34.03;;;18.00;;
38318;SDS011;24121;53.536;10.224;2024-02-15T16:13:33;34.88;;;18.77;;
38318;SDS011;24121;53.536;10.224;2024-02-15T16:15:59;21.73;;;16.00;;
38318;SDS011;24121;53.536;10.224;2024-02-15T16:18:24;42.13;;;19.48;;
38318;SDS011;24121;53.536;10.224;2024-02-15T16:20:50;35.83;;;18.90;;
38318;SDS011;24121;53.536;10.224;2024-02-15T16:23:15;28.98;;;16.77;;
38318;SDS011;24121;53.536;10.224;2024-02-15T16:25:40;18.88;;;13.57;;
38318;SDS011;24121;53.536;10.224;2024-02-15T16:28:06;16.88;;;13.85;;
38318;SDS011;24121;53.536;10.224;2024-02-15T16:30:31;26.02;;;16.65;;
38318;SDS011;24121;53.536;10.224;2024-02-15T16:32:58;30.70;;;17.55;;
38318;SDS011;24121;53.536;10.224;2024-02-15T16:35:24;26.83;;;15.73;;
38318;SDS011;24121;53.536;10.224;2024-02-15T16:37:50;33.50;;;17.42;;
38318;SDS011;24121;53.536;10.224;2024-02-15T16:40:15;31.42;;;17.50;;
38318;SDS011;24121;53.536;10.224;2024-02-15T16:42:45;45.47;;;21.38;;
38318;SDS011;24121;53.536;10.224;2024-02-15T16:45:13;24.05;;;15.95;;
38318;SDS011;24121;53.536;10.224;2024-02-15T16:47:39;24.35;;;16.00;;
38318;SDS011;24121;53.536;10.224;2024-02-15T16:50:05;48.58;;;21.25;;
38318;SDS011;24121;53.536;10.224;2024-02-15T16:52:33;26.42;;;18.42;;
38318;SDS011;24121;53.536;10.224;2024-02-15T16:55:02;59.03;;;22.73;;
38318;SDS011;24121;53.536;10.224;2024-02-15T16:57:31;48.28;;;22.88;;
38318;SDS011;24121;53.536;10.224;2024-02-15T16:59:57;23.85;;;17.20;;
38318;SDS011;24121;53.536;10.224;2024-02-15T17:02:22;28.63;;;18.10;;
38318;SDS011;24121;53.536;10.224;2024-02-15T17:04:48;19.65;;;15.82;;
38318;SDS011;24121;53.536;10.224;2024-02-15T17:07:13;25.27;;;17.50;;
38318;SDS011;24121;53.536;10.224;2024-02-15T17:09:39;33.58;;;17.40;;
38318;SDS011;24121;53.536;10.224;2024-02-15T17:12:04;22.98;;;16.42;;
38318;SDS011;24121;53.536;10.224;2024-02-15T17:14:31;38.00;;;19.23;;
38318;SDS011;24121;53.536;10.224;2024-02-15T17:16:57;28.95;;;17.13;;
38318;SDS011;24121;53.536;10.224;2024-02-15T17:19:22;34.42;;;20.10;;
38318;SDS011;24121;53.536;10.224;2024-02-15T17:21:47;64.38;;;24.52;;
38318;SDS011;24121;53.536;10.224;2024-02-15T17:24:14;30.63;;;18.98;;
38318;SDS011;24121;53.536;10.224;2024-02-15T17:26:44;50.05;;;21.38;;
38318;SDS011;24121;53.536;10.224;2024-02-15T17:29:10;42.20;;;18.35;;
38318;SDS011;24121;53.536;10.224;2024-02-15T17:31:36;62.47;;;23.10;;
38318;SDS011;24121;53.536;10.224;2024-02-15T17:34:01;23.15;;;16.95;;
38318;SDS011;24121;53.536;10.224;2024-02-15T17:36:27;47.35;;;19.45;;
38318;SDS011;24121;53.536;10.224;2024-02-15T17:38:52;35.15;;;18.67;;
38318;SDS011;24121;53.536;10.224;2024-02-15T17:41:17;16.58;;;14.45;;
38318;SDS011;24121;53.536;10.224;2024-02-15T17:43:44;41.60;;;19.13;;
38318;SDS011;24121;53.536;10.224;2024-02-15T17:46:10;83.82;;;26.38;;
38318;SDS011;24121;53.536;10.224;2024-02-15T17:48:35;48.38;;;20.40;;
38318;SDS011;24121;53.536;10.224;2024-02-15T17:51:00;24.20;;;15.63;;
38318;SDS011;24121;53.536;10.224;2024-02-15T17:53:26;57.22;;;22.48;;
38318;SDS011;24121;53.536;10.224;2024-02-15T17:55:51;33.25;;;17.17;;
38318;SDS011;24121;53.536;10.224;2024-02-15T17:58:17;60.42;;;21.45;;
38318;SDS011;24121;53.536;10.224;2024-02-15T18:00:43;23.08;;;16.05;;
38318;SDS011;24121;53.536;10.224;2024-02-15T18:03:09;17.33;;;14.88;;
38318;SDS011;24121;53.536;10.224;2024-02-15T18:05:35;22.38;;;15.18;;
38318;SDS011;24121;53.536;10.224;2024-02-15T18:08:01;92.40;;;25.02;;
38318;SDS011;24121;53.536;10.224;2024-02-15T18:10:26;35.45;;;18.27;;
38318;SDS011;24121;53.536;10.224;2024-02-15T18:12:52;31.10;;;19.00;;
38318;SDS011;24121;53.536;10.224;2024-02-15T18:15:18;24.35;;;15.68;;
38318;SDS011;24121;53.536;10.224;2024-02-15T18:17:47;46.75;;;19.92;;
38318;SDS011;24121;53.536;10.224;2024-02-15T18:20:18;35.15;;;18.83;;
38318;SDS011;24121;53.536;10.224;2024-02-15T18:22:43;30.90;;;17.50;;
38318;SDS011;24121;53.536;10.224;2024-02-15T18:25:09;23.42;;;15.07;;
38318;SDS011;24121;53.536;10.224;2024-02-15T18:27:34;73.72;;;25.23;;
38318;SDS011;24121;53.536;10.224;2024-02-15T18:30:04;28.05;;;16.65;;
38318;SDS011;24121;53.536;10.224;2024-02-15T18:32:30;19.33;;;14.90;;
38318;SDS011;24121;53.536;10.224;2024-02-15T18:34:56;69.03;;;21.33;;
38318;SDS011;24121;53.536;10.224;2024-02-15T18:37:23;21.40;;;15.07;;
38318;SDS011;24121;53.536;10.224;2024-02-15T18:39:49;70.43;;;22.10;;
38318;SDS011;24121;53.536;10.224;2024-02-15T18:42:15;20.27;;;14.57;;
38318;SDS011;24121;53.536;10.224;2024-02-15T18:44:41;24.38;;;15.77;;
38318;SDS011;24121;53.536;10.224;2024-02-15T18:47:07;27.80;;;17.15;;
38318;SDS011;24121;53.536;10.224;2024-02-15T18:49:33;31.73;;;16.05;;
38318;SDS011;24121;53.536;10.224;2024-02-15T18:51:58;25.40;;;15.73;;
38318;SDS011;24121;53.536;10.224;2024-02-15T18:54:24;22.83;;;15.70;;
38318;SDS011;24121;53.536;10.224;2024-02-15T18:56:49;15.65;;;13.50;;
38318;SDS011;24121;53.536;10.224;2024-02-15T18:59:19;34.63;;;18.23;;
38318;SDS011;24121;53.536;10.224;2024-02-15T19:01:45;27.48;;;14.95;;
38318;SDS011;24121;53.536;10.224;2024-02-15T19:04:12;33.58;;;16.13;;
38318;SDS011;24121;53.536;10.224;2024-02-15T19:06:37;21.08;;;14.60;;
38318;SDS011;24121;53.536;10.224;2024-02-15T19:09:05;43.42;;;18.00;;
38318;SDS011;24121;53.536;10.224;2024-02-15T19:11:31;25.48;;;14.90;;
38318;SDS011;24121;53.536;10.224;2024-02-15T19:13:57;15.63;;;11.70;;
38318;SDS011;24121;53.536;10.224;2024-02-15T19:16:22;17.88;;;12.98;;
38318;SDS011;24121;53.536;10.224;2024-02-15T19:18:49;24.60;;;14.38;;
38318;SDS011;24121;53.536;10.224;2024-02-15T19:21:16;21.25;;;13.63;;
38318;SDS011;24121;53.536;10.224;2024-02-15T19:23:42;17.98;;;12.32;;
38318;SDS011;24121;53.536;10.224;2024-02-15T19:26:07;28.30;;;14.77;;
38318;SDS011;24121;53.536;10.224;2024-02-15T19:28:33;25.17;;;13.75;;
38318;SDS011;24121;53.536;10.224;2024-02-15T19:30:59;35.65;;;15.77;;
38318;SDS011;24121;53.536;10.224;2024-02-15T19:33:24;14.30;;;11.15;;
38318;SDS011;24121;53.536;10.224;2024-02-15T19:35:49;21.38;;;13.25;;
38318;SDS011;24121;53.536;10.224;2024-02-15T19:38:15;24.25;;;15.52;;
38318;SDS011;24121;53.536;10.224;2024-02-15T19:40:40;25.13;;;14.10;;
38318;SDS011;24121;53.536;10.224;2024-02-15T19:43:07;35.78;;;14.55;;
38318;SDS011;24121;53.536;10.224;2024-02-15T19:45:33;40.15;;;16.15;;
38318;SDS011;24121;53.536;10.224;2024-02-15T19:48:03;34.60;;;15.52;;
38318;SDS011;24121;53.536;10.224;2024-02-15T19:50:30;12.93;;;9.68;;
38318;SDS011;24121;53.536;10.224;2024-02-15T19:52:56;12.68;;;10.65;;
38318;SDS011;24121;53.536;10.224;2024-02-15T19:55:22;27.67;;;14.23;;
38318;SDS011;24121;53.536;10.224;2024-02-15T19:57:47;31.90;;;13.95;;
38318;SDS011;24121;53.536;10.224;2024-02-15T20:00:14;13.18;;;10.40;;
38318;SDS011;24121;53.536;10.224;2024-02-15T20:02:40;20.17;;;11.40;;
38318;SDS011;24121;53.536;10.224;2024-02-15T20:05:07;22.30;;;12.38;;
38318;SDS011;24121;53.536;10.224;2024-02-15T20:07:33;17.58;;;11.48;;
38318;SDS011;24121;53.536;10.224;2024-02-15T20:10:05;27.33;;;13.70;;
38318;SDS011;24121;53.536;10.224;2024-02-15T20:12:34;14.45;;;9.65;;
38318;SDS011;24121;53.536;10.224;2024-02-15T20:14:59;16.95;;;11.07;;
38318;SDS011;24121;53.536;10.224;2024-02-15T20:17:25;18.38;;;11.75;;
38318;SDS011;24121;53.536;10.224;2024-02-15T20:19:50;31.67;;;16.17;;
38318;SDS011;24121;53.536;10.224;2024-02-15T20:22:16;26.52;;;12.88;;
38318;SDS011;24121;53.536;10.224;2024-02-15T20:24:41;47.20;;;19.50;;
38318;SDS011;24121;53.536;10.224;2024-02-15T20:27:08;51.17;;;19.33;;
38318;SDS011;24121;53.536;10.224;2024-02-15T20:29:35;20.42;;;11.68;;
38318;SDS011;24121;53.536;10.224;2024-02-15T20:32:02;40.47;;;16.38;;
38318;SDS011;24121;53.536;10.224;2024-02-15T20:34:29;18.63;;;12.18;;
38318;SDS011;24121;53.536;10.224;2024-02-15T20:36:54;34.38;;;13.88;;
38318;SDS011;24121;53.536;10.224;2024-02-15T20:39:22;53.53;;;18.60;;
38318;SDS011;24121;53.536;10.224;2024-02-15T20:41:48;13.40;;;8.68;;
38318;SDS011;24121;53.536;10.224;2024-02-15T20:44:14;14.88;;;9.77;;
38318;SDS011;24121;53.536;10.224;2024-02-15T20:46:39;16.23;;;9.88;;
38318;SDS011;24121;53.536;10.224;2024-02-15T20:49:04;14.30;;;8.63;;
38318;SDS011;24121;53.536;10.224;2024-02-15T20:51:30;14.63;;;9.68;;
38318;SDS011;24121;53.536;10.224;2024-02-15T20:53:57;15.63;;;9.43;;
38318;SDS011;24121;53.536;10.224;2024-02-15T20:56:22;12.32;;;8.02;;
38318;SDS011;24121;53.536;10.224;2024-02-15T20:58:48;12.13;;;7.53;;
38318;SDS011;24121;53.536;10.224;2024-02-15T21:01:15;19.75;;;9.40;;
38318;SDS011;24121;53.536;10.224;2024-02-15T21:03:44;13.52;;;8.32;;
38318;SDS011;24121;53.536;10.224;2024-02-15T21:06:20;14.80;;;7.50;;
38318;SDS011;24121;53.536;10.224;2024-02-15T21:08:47;7.85;;;6.20;;
38318;SDS011;24121;53.536;10.224;2024-02-15T21:11:21;17.65;;;8.60;;